createdAt,value
2022-09-11T00:01:51.092Z,2.50
2022-09-11T00:04:21.869Z,2.37
2022-09-11T00:06:52.490Z,2.40
2022-09-11T00:09:24.364Z,2.30
2022-09-11T00:11:52.872Z,2.20
2022-09-11T00:14:27.049Z,2.33
2022-09-11T00:17:08.247Z,2.10
2022-09-11T00:19:45.110Z,2.30
2022-09-11T00:22:19.458Z,2.43
2022-09-11T00:24:56.619Z,2.17
2022-09-11T00:27:31.112Z,2.43
2022-09-11T00:30:06.926Z,2.40
2022-09-11T00:32:42.122Z,2.30
2022-09-11T00:35:16.091Z,2.13
2022-09-11T00:37:46.340Z,2.40
2022-09-11T00:40:21.913Z,2.00
2022-09-11T00:42:54.088Z,2.03
2022-09-11T00:45:29.734Z,2.43
2022-09-11T00:48:04.194Z,1.97
2022-09-11T00:53:25.127Z,2.20
2022-09-11T00:55:57.716Z,2.27
2022-09-11T00:58:44.188Z,2.10
2022-09-11T01:01:17.391Z,2.00
2022-09-11T01:03:55.303Z,2.40
2022-09-11T01:06:26.270Z,2.20
2022-09-11T01:08:58.072Z,2.10
2022-09-11T01:11:40.996Z,2.40
2022-09-11T01:14:24.654Z,2.20
2022-09-11T01:17:13.367Z,1.90
2022-09-11T01:20:02.995Z,2.30
2022-09-11T01:22:52.179Z,2.33
2022-09-11T01:25:42.239Z,1.87
2022-09-11T01:28:16.272Z,1.93
2022-09-11T01:30:50.181Z,2.10
2022-09-11T01:33:27.139Z,2.00
2022-09-11T01:36:07.198Z,2.30
2022-09-11T01:39:01.783Z,2.07
2022-09-11T01:41:48.832Z,2.20
2022-09-11T01:44:22.999Z,1.97
2022-09-11T01:46:53.546Z,2.30
2022-09-11T01:49:39.583Z,2.53
2022-09-11T01:52:16.641Z,2.20
2022-09-11T01:54:51.818Z,2.13
2022-09-11T01:57:25.401Z,2.10
2022-09-11T02:00:02.416Z,2.20
2022-09-11T02:02:38.882Z,2.00
2022-09-11T02:05:20.119Z,2.30
2022-09-11T02:08:06.745Z,2.37
2022-09-11T02:10:54.862Z,2.07
2022-09-11T02:13:54.786Z,2.00
2022-09-11T02:16:28.433Z,2.17
2022-09-11T02:19:08.357Z,2.30
2022-09-11T02:21:42.216Z,2.13
2022-09-11T02:24:12.990Z,2.10
2022-09-11T02:26:48.326Z,2.50
2022-09-11T02:29:17.153Z,2.00
2022-09-11T02:31:49.360Z,2.10
2022-09-11T02:34:27.655Z,2.03
2022-09-11T02:37:16.517Z,2.10
2022-09-11T02:39:44.968Z,2.23
2022-09-11T02:42:22.262Z,2.10
2022-09-11T02:45:12.789Z,2.10
2022-09-11T02:48:01.160Z,2.17
2022-09-11T02:50:46.219Z,2.20
2022-09-11T02:53:32.872Z,1.80
2022-09-11T02:56:15.083Z,2.50
2022-09-11T02:58:52.772Z,2.20
2022-09-11T03:01:26.883Z,2.20
2022-09-11T03:04:03.724Z,2.07
2022-09-11T03:06:43.173Z,2.33
2022-09-11T03:09:15.507Z,2.20
2022-09-11T03:11:48.098Z,2.10
2022-09-11T03:14:17.214Z,2.20
2022-09-11T03:16:48.918Z,2.63
2022-09-11T03:19:19.446Z,1.90
2022-09-11T03:21:46.779Z,2.10
2022-09-11T03:24:17.280Z,2.40
2022-09-11T03:26:44.687Z,2.60
2022-09-11T03:29:14.743Z,2.03
2022-09-11T03:31:45.092Z,2.23
2022-09-11T03:34:20.314Z,2.10
2022-09-11T03:36:50.662Z,2.37
2022-09-11T03:39:32.127Z,2.00
2022-09-11T03:42:03.731Z,2.47
2022-09-11T03:44:36.390Z,2.77
2022-09-11T03:47:08.987Z,2.40
2022-09-11T03:49:39.199Z,2.40
2022-09-11T03:52:07.690Z,2.53
2022-09-11T03:54:38.238Z,2.23
2022-09-11T03:57:18.199Z,2.70
2022-09-11T03:59:48.539Z,2.67
2022-09-11T04:02:24.169Z,2.73
2022-09-11T04:04:55.934Z,2.77
2022-09-11T04:07:27.633Z,2.50
2022-09-11T04:10:00.145Z,2.87
2022-09-11T04:12:32.027Z,2.70
2022-09-11T04:15:05.399Z,2.43
2022-09-11T04:17:32.681Z,2.43
2022-09-11T04:20:05.560Z,2.87
2022-09-11T04:22:37.576Z,2.93
2022-09-11T04:25:11.711Z,2.80
2022-09-11T04:27:48.590Z,3.20
2022-09-11T04:30:21.989Z,2.60
2022-09-11T04:32:53.683Z,2.90
2022-09-11T04:35:25.269Z,3.07
2022-09-11T04:37:57.091Z,2.70
2022-09-11T04:40:29.968Z,2.53
2022-09-11T04:43:02.741Z,2.70
2022-09-11T04:45:36.628Z,3.10
2022-09-11T04:48:13.392Z,2.70
2022-09-11T04:50:43.487Z,2.63
2022-09-11T04:53:24.245Z,2.60
2022-09-11T04:56:04.755Z,2.80
2022-09-11T04:58:33.982Z,2.60
2022-09-11T05:01:09.757Z,2.90
2022-09-11T05:03:41.630Z,3.17
2022-09-11T05:06:11.548Z,3.03
2022-09-11T05:08:42.105Z,2.63
2022-09-11T05:11:16.572Z,2.60
2022-09-11T05:13:49.130Z,3.03
2022-09-11T05:16:17.776Z,3.00
2022-09-11T05:18:57.402Z,2.60
2022-09-11T05:21:32.243Z,3.00
2022-09-11T05:24:04.599Z,3.20
2022-09-11T05:29:22.403Z,3.10
2022-09-11T05:31:56.417Z,3.00
2022-09-11T05:34:39.027Z,3.03
2022-09-11T05:37:08.684Z,2.90
2022-09-11T05:39:39.485Z,3.00
2022-09-11T05:42:08.832Z,2.97
2022-09-11T05:44:40.403Z,3.07
2022-09-11T05:47:20.253Z,2.80
2022-09-11T05:49:52.087Z,2.80
2022-09-11T05:52:21.195Z,2.73
2022-09-11T05:54:53.328Z,2.60
2022-09-11T05:57:22.661Z,2.73
2022-09-11T05:59:57.552Z,2.60
2022-09-11T06:02:31.191Z,2.53
2022-09-11T06:05:09.338Z,2.37
2022-09-11T06:07:37.793Z,2.30
2022-09-11T06:12:57.163Z,2.70
2022-09-11T06:15:46.205Z,2.50
2022-09-11T06:18:19.367Z,2.53
2022-09-11T06:20:57.954Z,2.07
2022-09-11T06:23:28.842Z,2.33
2022-09-11T06:26:16.143Z,2.47
2022-09-11T06:31:33.176Z,2.30
2022-09-11T06:36:51.164Z,2.20
2022-09-11T06:39:25.811Z,2.00
2022-09-11T06:41:57.517Z,2.40
2022-09-11T06:44:30.501Z,2.17
2022-09-11T06:47:01.380Z,2.20
2022-09-11T06:49:33.414Z,2.60
2022-09-11T06:52:02.957Z,2.10
2022-09-11T06:54:32.895Z,2.33
2022-09-11T06:57:03.562Z,2.50
2022-09-11T06:59:34.745Z,2.37
2022-09-11T07:02:06.292Z,2.30
2022-09-11T07:04:40.475Z,2.50
2022-09-11T07:07:11.820Z,2.83
2022-09-11T07:09:39.248Z,2.23
2022-09-11T07:12:14.109Z,2.40
2022-09-11T07:14:46.269Z,2.90
2022-09-11T07:17:21.902Z,2.60
2022-09-11T07:19:52.911Z,2.70
2022-09-11T07:22:25.232Z,3.37
2022-09-11T07:24:57.956Z,2.90
2022-09-11T07:27:28.714Z,3.53
2022-09-11T07:30:03.731Z,3.97
2022-09-11T07:32:35.570Z,4.40
2022-09-11T07:35:09.174Z,4.70
2022-09-11T07:37:40.707Z,5.03
2022-09-11T07:40:09.465Z,4.90
2022-09-11T07:42:43.171Z,4.30
2022-09-11T07:45:14.336Z,4.50
2022-09-11T07:47:43.685Z,5.20
2022-09-11T07:50:19.381Z,5.27
2022-09-11T07:52:51.883Z,5.00
2022-09-11T07:55:21.075Z,6.03
2022-09-11T07:57:59.832Z,5.47
2022-09-11T08:00:28.375Z,5.20
2022-09-11T08:02:57.360Z,5.33
2022-09-11T08:05:28.108Z,6.70
2022-09-11T08:08:01.989Z,6.37
2022-09-11T08:10:30.249Z,6.00
2022-09-11T08:13:06.838Z,6.50
2022-09-11T08:15:39.971Z,6.03
2022-09-11T08:18:10.931Z,6.23
2022-09-11T08:20:42.900Z,6.43
2022-09-11T08:23:16.781Z,6.30
2022-09-11T08:25:45.429Z,6.10
2022-09-11T08:28:16.095Z,5.80
2022-09-11T08:30:48.390Z,5.67
2022-09-11T08:33:22.441Z,5.93
2022-09-11T08:35:51.058Z,5.97
2022-09-11T08:38:22.096Z,6.40
2022-09-11T08:41:00.327Z,5.83
2022-09-11T08:43:34.253Z,5.87
2022-09-11T08:46:11.815Z,5.83
2022-09-11T08:48:47.973Z,5.47
2022-09-11T08:51:23.079Z,6.00
2022-09-11T08:53:54.364Z,5.93
2022-09-11T08:56:27.062Z,5.53
2022-09-11T08:59:17.848Z,5.37
2022-09-11T09:02:04.340Z,5.27
2022-09-11T09:04:52.931Z,5.87
2022-09-11T09:07:41.011Z,5.97
2022-09-11T09:10:36.978Z,5.03
2022-09-11T09:13:25.548Z,5.67
2022-09-11T09:16:07.012Z,6.10
2022-09-11T09:18:42.430Z,5.60
2022-09-11T09:21:31.985Z,5.23
2022-09-11T09:24:04.408Z,5.70
2022-09-11T09:26:47.623Z,6.00
2022-09-11T09:29:21.707Z,5.77
2022-09-11T09:31:58.550Z,5.47
2022-09-11T09:34:31.484Z,5.57
2022-09-11T09:37:37.808Z,5.60
2022-09-11T09:40:11.904Z,5.57
2022-09-11T09:42:51.813Z,6.07
2022-09-11T09:45:42.108Z,6.50
2022-09-11T09:48:15.304Z,6.03
2022-09-11T09:50:47.424Z,6.20
2022-09-11T09:53:32.527Z,6.30
2022-09-11T09:56:09.824Z,6.40
2022-09-11T09:58:51.863Z,7.30
2022-09-11T10:01:40.688Z,7.07
2022-09-11T10:04:22.888Z,6.60
2022-09-11T10:06:55.061Z,6.90
2022-09-11T10:09:27.053Z,7.13
2022-09-11T10:12:02.440Z,7.30
2022-09-11T10:14:53.206Z,7.93
2022-09-11T10:17:34.893Z,8.23
2022-09-11T10:20:26.451Z,7.53
2022-09-11T10:22:55.796Z,7.70
2022-09-11T10:25:37.107Z,8.60
2022-09-11T10:28:16.025Z,7.63
2022-09-11T10:30:58.448Z,8.27
2022-09-11T10:33:36.462Z,12.13
2022-09-11T10:36:10.485Z,27.07
2022-09-11T10:38:50.489Z,25.67
2022-09-11T10:41:27.614Z,24.83
2022-09-11T10:44:10.695Z,23.73
2022-09-11T10:46:54.283Z,20.77
2022-09-11T10:49:25.455Z,19.20
2022-09-11T10:52:21.797Z,19.90
2022-09-11T10:54:55.824Z,19.30
2022-09-11T10:57:26.857Z,17.20
2022-09-11T11:00:16.988Z,16.37
2022-09-11T11:02:48.378Z,15.07
2022-09-11T11:05:31.320Z,14.73
2022-09-11T11:08:12.646Z,14.20
2022-09-11T11:11:09.800Z,13.60
2022-09-11T11:13:59.155Z,12.73
2022-09-11T11:16:43.640Z,12.00
2022-09-11T11:19:31.909Z,12.47
2022-09-11T11:22:23.065Z,11.80
2022-09-11T11:24:54.598Z,10.73
2022-09-11T11:27:41.864Z,11.00
2022-09-11T11:30:26.520Z,9.83
2022-09-11T11:33:11.746Z,9.83
2022-09-11T11:35:45.155Z,8.87
2022-09-11T11:38:35.799Z,8.43
2022-09-11T11:41:16.912Z,8.60
2022-09-11T11:43:45.903Z,8.83
2022-09-11T11:46:33.512Z,8.53
2022-09-11T11:49:06.539Z,7.97
2022-09-11T11:52:03.858Z,7.93
2022-09-11T11:54:47.059Z,7.77
2022-09-11T11:57:25.103Z,7.57
2022-09-11T12:00:10.167Z,7.30
2022-09-11T12:02:43.054Z,7.43
2022-09-11T12:05:33.219Z,7.10
2022-09-11T12:08:05.206Z,7.10
2022-09-11T12:10:46.253Z,6.83
2022-09-11T12:13:20.359Z,6.20
2022-09-11T12:16:17.424Z,5.37
2022-09-11T12:19:19.184Z,5.70
2022-09-11T12:21:59.666Z,5.60
2022-09-11T12:24:48.502Z,5.20
2022-09-11T12:27:46.914Z,4.73
2022-09-11T12:30:21.827Z,4.63
2022-09-11T12:32:57.197Z,5.63
2022-09-11T12:38:35.758Z,4.20
2022-09-11T12:41:20.658Z,4.23
2022-09-11T12:43:56.381Z,3.73
2022-09-11T12:46:27.645Z,4.00
2022-09-11T12:49:21.591Z,3.87
2022-09-11T12:51:59.663Z,4.07
2022-09-11T12:54:44.624Z,3.83
2022-09-11T12:57:24.035Z,3.60
2022-09-11T12:59:59.589Z,3.40
2022-09-11T13:02:47.748Z,3.23
2022-09-11T13:05:32.666Z,3.60
2022-09-11T13:08:00.783Z,3.10
2022-09-11T13:10:46.403Z,3.33
2022-09-11T13:13:34.878Z,2.90
2022-09-11T13:16:23.479Z,2.70
2022-09-11T13:21:52.231Z,2.90
2022-09-11T13:24:29.751Z,2.70
2022-09-11T13:27:03.965Z,3.13
2022-09-11T13:29:40.200Z,3.20
2022-09-11T13:32:14.252Z,2.80
2022-09-11T13:34:51.769Z,2.93
2022-09-11T13:37:33.117Z,2.77
2022-09-11T13:40:08.721Z,3.20
2022-09-11T13:42:40.670Z,3.00
2022-09-11T13:45:23.866Z,3.53
2022-09-11T13:47:58.390Z,3.30
2022-09-11T13:53:17.987Z,2.90
2022-09-11T13:55:56.828Z,3.50
2022-09-11T13:58:31.033Z,3.20
2022-09-11T14:03:56.268Z,2.80
2022-09-11T14:06:31.390Z,3.47
2022-09-11T14:09:00.839Z,3.47
2022-09-11T14:11:37.936Z,2.90
2022-09-11T14:14:14.439Z,3.10
2022-09-11T14:16:48.955Z,3.43
2022-09-11T14:19:21.676Z,2.80
2022-09-11T14:21:56.085Z,3.53
2022-09-11T14:24:37.465Z,2.73
2022-09-11T14:27:30.371Z,3.80
2022-09-11T14:30:04.455Z,3.10
2022-09-11T14:32:40.215Z,3.30
2022-09-11T14:35:12.079Z,3.13
2022-09-11T14:37:49.114Z,3.27
2022-09-11T14:40:22.204Z,3.30
2022-09-11T14:42:53.895Z,3.20
2022-09-11T14:45:35.433Z,3.40
2022-09-11T14:48:05.594Z,3.00
2022-09-11T14:50:35.036Z,2.93
2022-09-11T14:53:07.002Z,2.90
2022-09-11T14:55:36.667Z,2.87
2022-09-11T14:58:07.869Z,2.67
2022-09-11T15:00:41.887Z,3.07
2022-09-11T15:03:10.686Z,3.20
2022-09-11T15:05:40.021Z,3.10
2022-09-11T15:08:11.667Z,2.80
2022-09-11T15:10:44.537Z,2.90
2022-09-11T15:13:16.722Z,2.97
2022-09-11T15:15:46.772Z,2.90
2022-09-11T15:18:19.255Z,3.00
2022-09-11T15:20:53.512Z,3.17
2022-09-11T15:23:34.665Z,2.93
2022-09-11T15:26:09.448Z,3.13
2022-09-11T15:28:41.301Z,2.90
2022-09-11T15:31:21.845Z,3.30
2022-09-11T15:33:57.699Z,3.20
2022-09-11T15:36:29.750Z,2.77
2022-09-11T15:39:02.870Z,2.97
2022-09-11T15:41:34.656Z,3.10
2022-09-11T15:44:26.711Z,29.50
2022-09-11T15:47:02.122Z,46.80
2022-09-11T15:49:35.629Z,36.37
2022-09-11T15:52:10.248Z,28.63
2022-09-11T15:54:43.717Z,29.60
2022-09-11T15:59:59.092Z,24.57
2022-09-11T16:02:31.472Z,23.03
2022-09-11T16:05:02.779Z,21.10
2022-09-11T16:07:34.259Z,19.50
2022-09-11T16:10:03.679Z,18.57
2022-09-11T16:12:34.896Z,18.10
2022-09-11T16:15:04.896Z,17.30
2022-09-11T16:17:35.155Z,15.50
2022-09-11T16:20:04.697Z,16.13
2022-09-11T16:22:37.696Z,15.43
2022-09-11T16:25:11.038Z,13.70
2022-09-11T16:27:42.133Z,13.63
2022-09-11T16:30:39.665Z,13.40
2022-09-11T16:33:08.812Z,12.07
2022-09-11T16:36:17.162Z,13.27
2022-09-11T16:38:46.400Z,10.37
2022-09-11T16:41:22.281Z,9.90
2022-09-11T16:44:03.742Z,10.83
2022-09-11T16:46:33.627Z,9.70
2022-09-11T16:49:05.682Z,9.30
2022-09-11T16:51:34.428Z,9.10
2022-09-11T16:54:05.426Z,9.53
2022-09-11T16:56:32.790Z,7.93
2022-09-11T16:59:04.212Z,8.10
2022-09-11T17:01:39.263Z,7.60
2022-09-11T17:04:09.468Z,8.00
2022-09-11T17:09:29.530Z,7.17
2022-09-11T17:12:00.195Z,6.87
2022-09-11T17:14:34.375Z,6.10
2022-09-11T17:17:07.091Z,6.40
2022-09-11T17:19:37.990Z,5.87
2022-09-11T17:22:07.564Z,5.70
2022-09-11T17:24:39.639Z,5.97
2022-09-11T17:27:12.655Z,6.23
2022-09-11T17:29:44.774Z,5.70
2022-09-11T17:32:29.104Z,5.13
2022-09-11T17:35:10.447Z,4.93
2022-09-11T17:37:40.527Z,4.60
2022-09-11T17:40:17.982Z,5.13
2022-09-11T17:42:49.964Z,4.77
2022-09-11T17:45:22.890Z,4.63
2022-09-11T17:47:50.242Z,4.27
2022-09-11T17:50:18.835Z,4.70
2022-09-11T17:52:49.558Z,4.23
2022-09-11T17:55:19.640Z,4.10
2022-09-11T17:58:00.732Z,4.13
2022-09-11T18:00:33.826Z,3.93
2022-09-11T18:03:04.751Z,3.80
2022-09-11T18:08:22.907Z,3.63
2022-09-11T18:10:54.195Z,3.53
2022-09-11T18:13:26.560Z,3.80
2022-09-11T18:15:59.526Z,3.63
2022-09-11T18:18:29.126Z,3.37
2022-09-11T18:21:07.836Z,3.60
2022-09-11T18:23:42.696Z,3.17
2022-09-11T18:26:36.142Z,3.37
2022-09-11T18:29:06.553Z,3.57
2022-09-11T18:34:27.102Z,3.17
2022-09-11T18:37:00.107Z,3.13
2022-09-11T18:39:31.495Z,3.13
2022-09-11T18:42:00.140Z,2.97
2022-09-11T18:44:32.580Z,3.30
2022-09-11T18:47:03.910Z,2.80
2022-09-11T18:49:38.183Z,3.33
2022-09-11T18:52:14.130Z,3.13
2022-09-11T18:54:46.487Z,3.80
2022-09-11T18:57:18.857Z,3.17
2022-09-11T18:59:46.499Z,3.10
2022-09-11T19:02:17.808Z,3.00
2022-09-11T19:04:51.677Z,3.50
2022-09-11T19:07:22.262Z,3.17
2022-09-11T19:09:54.960Z,3.30
2022-09-11T19:12:26.065Z,3.10
2022-09-11T19:14:55.628Z,3.07
2022-09-11T19:17:27.374Z,3.30
2022-09-11T19:20:10.474Z,3.37
2022-09-11T19:22:40.631Z,2.90
2022-09-11T19:25:10.762Z,3.30
2022-09-11T19:27:40.271Z,3.00
2022-09-11T19:30:15.962Z,3.27
2022-09-11T19:32:47.087Z,3.10
2022-09-11T19:35:17.705Z,2.97
2022-09-11T19:37:49.527Z,3.50
2022-09-11T19:40:32.988Z,3.07
2022-09-11T19:43:03.952Z,3.03
2022-09-11T19:45:34.943Z,3.20
2022-09-11T19:48:07.449Z,3.33
2022-09-11T19:50:39.153Z,2.87
2022-09-11T19:53:10.985Z,3.47
2022-09-11T19:55:39.847Z,3.33
2022-09-11T19:58:10.253Z,3.03
2022-09-11T20:00:40.285Z,3.10
2022-09-11T20:03:12.335Z,3.20
2022-09-11T20:05:47.247Z,3.23
2022-09-11T20:08:20.279Z,3.53
2022-09-11T20:10:51.213Z,3.53
2022-09-11T20:13:19.324Z,3.23
2022-09-11T20:15:51.465Z,3.20
2022-09-11T20:18:21.783Z,3.30
2022-09-11T20:20:51.204Z,3.27
2022-09-11T20:23:23.424Z,3.00
2022-09-11T20:25:57.325Z,3.57
2022-09-11T20:28:24.790Z,3.30
2022-09-11T20:30:55.658Z,3.10
2022-09-11T20:33:28.724Z,3.30
2022-09-11T20:36:00.504Z,3.00
2022-09-11T20:38:34.695Z,3.00
2022-09-11T20:41:15.028Z,3.33
2022-09-11T20:43:46.787Z,3.00
2022-09-11T20:46:15.260Z,2.80
2022-09-11T20:48:46.469Z,3.13
2022-09-11T20:51:16.637Z,2.80
2022-09-11T20:53:49.862Z,2.93
2022-09-11T20:56:19.589Z,3.00
2022-09-11T21:01:38.331Z,2.77
2022-09-11T21:04:09.407Z,2.67
2022-09-11T21:06:37.747Z,2.60
2022-09-11T21:09:11.349Z,2.67
2022-09-11T21:11:46.507Z,3.07
2022-09-11T21:14:18.031Z,3.20
2022-09-11T21:16:50.130Z,2.87
2022-09-11T21:19:20.919Z,2.73
2022-09-11T21:21:50.477Z,2.70
2022-09-11T21:24:25.435Z,2.73
2022-09-11T21:26:55.915Z,2.77
2022-09-11T21:29:24.371Z,2.90
2022-09-11T21:31:58.247Z,2.77
2022-09-11T21:34:25.915Z,2.63
2022-09-11T21:36:56.591Z,2.60
2022-09-11T21:39:28.771Z,2.60
2022-09-11T21:42:01.239Z,2.80
2022-09-11T21:47:11.628Z,2.57
2022-09-11T21:49:43.581Z,2.53
2022-09-11T21:52:13.106Z,2.73
2022-09-11T21:54:40.448Z,2.60
2022-09-11T21:57:13.027Z,2.40
2022-09-11T21:59:43.032Z,3.00
2022-09-11T22:02:11.829Z,2.53
2022-09-11T22:04:43.487Z,2.80
2022-09-11T22:07:15.198Z,2.63
2022-09-11T22:12:31.835Z,2.63
2022-09-11T22:15:01.815Z,2.50
2022-09-11T22:17:30.257Z,2.57
2022-09-11T22:20:01.813Z,2.70
2022-09-11T22:22:33.257Z,2.87
2022-09-11T22:25:06.344Z,2.43
2022-09-11T22:27:38.711Z,2.47
2022-09-11T22:30:08.421Z,3.10
2022-09-11T22:32:40.493Z,2.60
2022-09-11T22:35:11.910Z,2.70
2022-09-11T22:37:44.636Z,2.63
2022-09-11T22:40:16.973Z,2.63
2022-09-11T22:42:45.488Z,2.70
2022-09-11T22:45:20.607Z,2.70
2022-09-11T22:47:51.033Z,2.63
2022-09-11T22:50:21.463Z,2.70
2022-09-11T22:52:51.399Z,3.07
2022-09-11T22:55:21.721Z,2.80
2022-09-11T22:57:53.036Z,3.17
2022-09-11T23:00:21.651Z,2.67
2022-09-11T23:02:51.814Z,2.60
2022-09-11T23:05:39.723Z,3.07
2022-09-11T23:08:08.173Z,2.43
2022-09-11T23:10:44.267Z,2.40
2022-09-11T23:13:14.857Z,2.60
2022-09-11T23:15:46.466Z,2.80
2022-09-11T23:18:18.545Z,2.67
2022-09-11T23:20:50.584Z,2.40
2022-09-11T23:23:23.465Z,2.63
2022-09-11T23:25:54.449Z,2.70
2022-09-11T23:28:24.486Z,2.70
2022-09-11T23:30:53.395Z,2.70
2022-09-11T23:33:25.618Z,3.00
2022-09-11T23:35:54.647Z,2.43
2022-09-11T23:38:24.706Z,2.67
2022-09-11T23:40:55.856Z,2.43
2022-09-11T23:43:27.854Z,2.50
2022-09-11T23:46:03.964Z,3.07
2022-09-11T23:48:35.910Z,2.67
2022-09-11T23:51:08.580Z,2.63
2022-09-11T23:53:40.438Z,2.73
2022-09-11T23:56:15.001Z,2.70
2022-09-11T23:58:45.446Z,2.67
